Time;durP1;ratioP1;P1;durP2;ratioP2;P2;SDS_P1;SDS_P2;PMS_P1;PMS_P2;Temp;Humidity;BMP_temperature;BMP_pressure;BME280_temperature;BME280_humidity;BME280_pressure;Samples;Min_cycle;Max_cycle;Signal;HPM_P1;HPM_P2
2023/01/29 00:01:15;;;;;;;6.68;4.72;;;;;;;17.09;40.19;102912.44;5009053;28;20030;-60
2023/01/29 00:03:40;;;;;;;5.05;4.25;;;;;;;17.09;40.26;102915.13;5011359;28;20026;-59
2023/01/29 00:06:07;;;;;;;6.28;4.63;;;;;;;17.08;40.25;102918.78;5024005;28;20025;-58
2023/01/29 00:08:34;;;;;;;6.75;4.80;;;;;;;17.09;40.10;102925.00;5024106;28;20046;-60
2023/01/29 00:11:01;;;;;;;6.95;4.43;;;;;;;17.01;40.24;102903.19;5012480;28;20030;-59
2023/01/29 00:13:26;;;;;;;6.28;4.53;;;;;;;17.07;39.82;102906.28;5021936;28;20022;-60
2023/01/29 00:15:55;;;;;;;5.70;4.40;;;;;;;17.05;40.06;102894.78;5009891;28;20044;-58
2023/01/29 00:18:21;;;;;;;8.65;5.22;;;;;;;17.05;39.99;102889.41;5011766;28;20058;-58
2023/01/29 00:20:46;;;;;;;6.20;4.60;;;;;;;17.04;40.26;102887.72;5022077;28;20663;-59
2023/01/29 00:23:11;;;;;;;6.93;4.93;;;;;;;17.04;39.99;102879.66;5023251;28;20044;-59
2023/01/29 00:25:37;;;;;;;7.13;4.55;;;;;;;17.03;40.07;102872.53;5021555;28;20030;-59
2023/01/29 00:28:02;;;;;;;6.55;4.45;;;;;;;17.03;39.97;102866.28;5012523;28;20449;-59
2023/01/29 00:30:27;;;;;;;5.88;4.65;;;;;;;17.03;40.14;102860.91;5010346;28;20113;-59
2023/01/29 00:32:53;;;;;;;5.97;4.78;;;;;;;17.00;40.00;102856.63;5021751;28;20026;-59
2023/01/29 00:35:18;;;;;;;7.38;4.70;;;;;;;17.01;39.83;102863.72;5019148;28;20029;-59
2023/01/29 00:37:43;;;;;;;6.95;4.38;;;;;;;17.01;39.99;102861.03;5013558;28;20041;-59
2023/01/29 00:40:09;;;;;;;6.18;4.32;;;;;;;16.97;40.01;102854.16;4999982;28;20022;-59
2023/01/29 00:45:18;;;;;;;6.97;4.90;;;;;;;16.93;39.86;102856.19;5016773;28;20419;-60
2023/01/29 00:47:44;;;;;;;6.15;4.35;;;;;;;16.99;39.97;102868.34;5024775;28;20034;-59
2023/01/29 00:50:10;;;;;;;7.28;4.72;;;;;;;16.84;39.92;102845.25;5007289;28;20042;-58
2023/01/29 00:52:36;;;;;;;7.05;4.43;;;;;;;16.97;39.96;102864.91;5021290;28;20038;-58
2023/01/29 00:55:03;;;;;;;5.60;4.25;;;;;;;16.95;40.01;102861.50;5013145;28;20036;-59
2023/01/29 00:57:30;;;;;;;12.48;5.10;;;;;;;16.96;40.23;102864.06;5027182;28;20033;-58
2023/01/29 00:59:55;;;;;;;5.72;4.10;;;;;;;16.96;40.11;102866.75;5022548;28;20037;-57
2023/01/29 01:05:06;;;;;;;7.00;4.57;;;;;;;16.81;39.99;102848.16;5012850;28;20025;-59
2023/01/29 01:07:32;;;;;;;5.72;4.32;;;;;;;16.95;40.09;102869.56;5018465;28;20033;-59
2023/01/29 01:12:41;;;;;;;5.22;4.32;;;;;;;16.94;40.07;102862.44;5011165;28;20041;-59
2023/01/29 01:15:07;;;;;;;6.30;4.60;;;;;;;16.93;40.03;102864.25;5002733;28;20030;-60
2023/01/29 01:17:33;;;;;;;4.53;3.85;;;;;;;16.93;40.00;102855.34;5014290;28;20042;-60
2023/01/29 01:19:58;;;;;;;6.97;4.63;;;;;;;16.92;40.07;102857.19;5011621;28;20034;-59
2023/01/29 01:22:23;;;;;;;7.80;4.47;;;;;;;16.82;40.04;102837.31;5015112;28;20018;-59
2023/01/29 01:24:49;;;;;;;5.22;3.75;;;;;;;16.89;40.15;102840.41;5016274;28;20142;-59
2023/01/29 01:27:15;;;;;;;5.28;3.70;;;;;;;16.91;40.07;102842.03;5012931;28;20042;-59
2023/01/29 01:29:40;;;;;;;5.20;3.92;;;;;;;16.91;40.14;102843.88;5019120;28;20044;-59
2023/01/29 01:32:06;;;;;;;5.53;3.92;;;;;;;16.90;40.01;102847.50;5020204;28;20049;-59
2023/01/29 01:34:31;;;;;;;5.15;3.90;;;;;;;16.90;40.14;102847.50;5020790;28;20041;-59
2023/01/29 01:36:56;;;;;;;5.45;4.10;;;;;;;16.90;40.07;102842.97;5017794;28;20022;-59
2023/01/29 01:39:22;;;;;;;5.50;4.10;;;;;;;16.82;40.31;102836.41;5026134;28;20030;-59
2023/01/29 01:41:48;;;;;;;7.13;4.25;;;;;;;16.89;40.11;102861.91;5016806;28;20050;-59
2023/01/29 01:44:51;;;;;;;5.07;3.78;;;;;;;16.89;40.25;102859.22;5020920;28;20021;-58
2023/01/29 01:47:19;;;;;;;4.47;3.75;;;;;;;16.87;40.28;102861.16;5013633;28;20052;-59
2023/01/29 01:49:46;;;;;;;4.93;3.95;;;;;;;16.87;40.17;102870.09;5008370;28;20032;-60
2023/01/29 01:52:12;;;;;;;5.07;3.90;;;;;;;16.87;40.15;102866.53;5015318;28;20034;-59
2023/01/29 01:54:37;;;;;;;4.65;3.80;;;;;;;16.82;40.08;102871.34;5002657;28;20029;-59
2023/01/29 01:57:08;;;;;;;4.95;3.88;;;;;;;16.86;40.21;102871.03;4997369;28;20021;-60
2023/01/29 01:59:37;;;;;;;6.93;4.18;;;;;;;16.81;40.20;102867.81;5011940;28;20058;-60
2023/01/29 02:10:17;;;;;;;4.45;3.60;;;;;;;16.83;40.08;102859.66;5020085;28;20053;-59
2023/01/29 02:12:44;;;;;;;6.05;4.38;;;;;;;16.80;40.39;102868.78;5009955;28;20026;-59
2023/01/29 02:15:10;;;;;;;5.22;3.58;;;;;;;16.84;40.24;102872.97;5019312;28;20467;-57
2023/01/29 02:17:35;;;;;;;5.03;3.40;;;;;;;16.84;40.20;102872.97;5011733;28;20026;-59
2023/01/29 02:20:17;;;;;;;4.88;3.53;;;;;;;16.84;40.29;102864.91;5007779;28;20034;-59
2023/01/29 02:23:25;;;;;;;3.97;3.40;;;;;;;16.83;40.31;102876.63;5024445;28;20041;-58
2023/01/29 02:26:15;;;;;;;4.65;3.67;;;;;;;16.82;40.33;102869.56;5007819;28;20089;-59
2023/01/29 02:29:21;;;;;;;3.90;3.10;;;;;;;16.82;40.32;102874.91;4988419;28;20427;-59
2023/01/29 02:31:53;;;;;;;4.28;3.45;;;;;;;16.82;40.26;102882.97;5015950;28;20030;-59
2023/01/29 02:37:16;;;;;;;4.00;3.40;;;;;;;16.81;40.26;102885.75;5010274;28;20024;-58
2023/01/29 02:39:50;;;;;;;5.18;3.40;;;;;;;16.81;40.32;102891.13;4993846;28;20120;-60
2023/01/29 02:42:47;;;;;;;5.95;4.03;;;;;;;16.81;40.41;102893.81;5003784;28;20070;-59
2023/01/29 02:45:17;;;;;;;4.53;3.58;;;;;;;16.80;40.30;102894.78;4973764;28;20054;-60
2023/01/29 02:47:57;;;;;;;4.85;3.38;;;;;;;16.81;40.29;102893.81;5019381;28;20037;-59
2023/01/29 02:50:33;;;;;;;5.70;3.42;;;;;;;16.80;40.30;102892.97;5014279;28;20085;-58
2023/01/29 02:53:14;;;;;;;5.30;3.70;;;;;;;16.79;40.38;102888.56;5004194;28;20037;-58
2023/01/29 02:55:58;;;;;;;4.75;3.65;;;;;;;16.80;40.43;102892.97;4998385;28;20033;-59
2023/01/29 02:58:30;;;;;;;6.63;4.10;;;;;;;16.80;40.22;102884.03;5011131;28;20295;-59
2023/01/29 03:00:59;;;;;;;4.40;3.35;;;;;;;16.79;40.24;102876.97;5012108;28;20018;-59
2023/01/29 03:03:29;;;;;;;4.32;3.63;;;;;;;16.77;40.38;102879.72;5001384;28;20022;-59
2023/01/29 03:06:07;;;;;;;4.15;3.63;;;;;;;16.78;40.37;102876.09;5011505;28;20058;-58
2023/01/29 03:08:41;;;;;;;6.32;3.90;;;;;;;16.78;40.36;102873.41;4999126;28;20044;-59
2023/01/29 03:11:12;;;;;;;4.10;3.28;;;;;;;16.78;40.43;102867.16;4994015;28;20026;-58
2023/01/29 03:13:44;;;;;;;3.55;3.15;;;;;;;16.78;40.41;102868.03;5000580;28;20026;-56
2023/01/29 03:16:14;;;;;;;4.00;3.50;;;;;;;16.78;40.41;102856.41;5024611;28;20041;-59
2023/01/29 03:18:44;;;;;;;4.18;3.33;;;;;;;16.78;40.41;102843.88;5007073;28;20022;-59
2023/01/29 03:32:17;;;;;;;4.78;3.35;;;;;;;16.71;40.33;102810.31;5003491;28;20062;-59
2023/01/29 03:34:47;;;;;;;3.45;3.08;;;;;;;16.77;40.33;102823.31;4996854;28;20084;-59
2023/01/29 03:37:35;;;;;;;3.35;3.00;;;;;;;16.76;40.18;102816.25;4993269;28;20522;-59
2023/01/29 03:40:03;;;;;;;4.55;3.45;;;;;;;16.77;40.64;102817.94;5023521;28;20052;-59
2023/01/29 03:42:37;;;;;;;4.50;3.17;;;;;;;16.77;40.28;102817.09;4989805;28;20135;-57
2023/01/29 03:45:34;;;;;;;3.88;3.45;;;;;;;16.77;40.27;102811.72;4997641;28;20042;-60
2023/01/29 03:48:15;;;;;;;3.85;3.35;;;;;;;16.76;40.48;102797.44;4989516;28;20042;-58
2023/01/29 03:50:53;;;;;;;4.55;3.35;;;;;;;16.77;40.49;102801.81;4997359;28;20023;-59
2023/01/29 03:53:29;;;;;;;4.80;3.13;;;;;;;16.77;40.46;102795.59;4993204;28;20082;-59
2023/01/29 03:56:01;;;;;;;4.30;3.20;;;;;;;16.73;40.35;102792.25;4989815;28;20022;-59
2023/01/29 03:58:36;;;;;;;4.57;3.13;;;;;;;16.77;40.33;102800.97;4993848;28;20057;-59
2023/01/29 04:01:06;;;;;;;4.60;3.40;;;;;;;16.77;40.41;102796.47;5001231;28;20030;-59
2023/01/29 04:03:38;;;;;;;3.72;3.25;;;;;;;16.77;40.30;102791.09;5004468;28;20026;-54
2023/01/29 04:06:11;;;;;;;3.28;2.90;;;;;;;16.78;40.61;102795.50;4989194;28;20090;-58
2023/01/29 04:08:47;;;;;;;3.95;3.10;;;;;;;16.77;40.47;102772.28;4989607;28;20026;-58
2023/01/29 04:11:15;;;;;;;3.83;3.22;;;;;;;16.77;40.36;102772.28;5003915;28;20085;-58
2023/01/29 04:13:40;;;;;;;3.20;2.80;;;;;;;16.77;40.33;102768.75;5008059;28;20030;-58
2023/01/29 04:16:09;;;;;;;3.78;3.03;;;;;;;16.77;40.43;102761.53;5007633;28;20080;-54
2023/01/29 04:18:35;;;;;;;;;;;;;;;16.76;40.48;102758.97;4994200;28;20018;-58
2023/01/29 04:21:00;;;;;;;4.05;3.08;;;;;;;16.77;40.43;102774.13;5007790;28;19916;-58
2023/01/29 04:23:26;;;;;;;4.50;2.85;;;;;;;16.73;40.42;102774.31;4994257;28;20073;-59
2023/01/29 04:26:13;;;;;;;4.32;3.10;;;;;;;16.76;40.43;102778.63;5007933;28;20038;-59
2023/01/29 04:29:06;;;;;;;3.38;3.08;;;;;;;16.77;40.35;102774.13;4993106;28;20030;-58
2023/01/29 04:31:34;;;;;;;3.83;3.10;;;;;;;16.77;40.42;102787.53;4994370;28;20030;-59
2023/01/29 04:34:10;;;;;;;3.63;3.00;;;;;;;16.76;40.44;102789.38;4998340;28;20039;-58
2023/01/29 04:37:04;;;;;;;3.45;3.08;;;;;;;16.76;40.44;102783.16;5000954;28;20038;-59
2023/01/29 04:39:39;;;;;;;4.20;2.95;;;;;;;16.77;40.49;102772.28;4919212;29;20036;-58
2023/01/29 04:42:14;;;;;;;3.65;3.00;;;;;;;16.78;40.24;102762.38;4912133;29;20460;-59
2023/01/29 04:44:48;;;;;;;3.53;2.92;;;;;;;16.69;40.37;102745.97;4918432;29;20058;-59
2023/01/29 04:47:30;;;;;;;3.83;3.42;;;;;;;16.77;40.44;102752.63;4912700;29;20020;-59
2023/01/29 04:50:03;;;;;;;3.40;2.80;;;;;;;16.72;40.50;102747.56;4916162;29;20059;-59
2023/01/29 04:52:38;;;;;;;4.03;3.25;;;;;;;16.77;40.34;102747.25;4927423;29;20054;-59
2023/01/29 04:55:20;;;;;;;3.33;2.60;;;;;;;16.78;40.56;102754.34;4927540;29;20557;-59
2023/01/29 04:58:26;;;;;;;3.45;3.10;;;;;;;16.78;40.26;102751.66;4900165;29;20040;-59
2023/01/29 05:00:53;;;;;;;4.05;2.90;;;;;;;16.78;40.57;102757.03;4927190;29;20059;-58
2023/01/29 05:03:19;;;;;;;3.25;2.88;;;;;;;16.78;40.42;102759.69;4902102;29;20041;-59
2023/01/29 05:05:46;;;;;;;3.25;2.80;;;;;;;16.78;40.42;102757.03;4908060;29;20070;-58
2023/01/29 05:08:14;;;;;;;3.15;2.85;;;;;;;16.78;40.46;102752.53;4927900;29;20137;-59
2023/01/29 05:10:41;;;;;;;3.17;2.88;;;;;;;16.78;40.35;102755.22;4914367;29;20037;-59
2023/01/29 05:13:11;;;;;;;2.80;2.53;;;;;;;16.79;40.43;102756.94;4923760;29;20032;-59
2023/01/29 05:15:38;;;;;;;4.47;3.00;;;;;;;16.79;40.36;102750.69;4928693;28;20044;-60
2023/01/29 05:18:07;;;;;;;3.22;2.40;;;;;;;16.79;40.43;102754.25;5000593;28;20380;-59
2023/01/29 05:20:34;;;;;;;4.00;2.70;;;;;;;16.80;40.46;102757.78;4995201;28;20046;-58
2023/01/29 05:22:59;;;;;;;3.20;2.90;;;;;;;16.80;40.61;102760.47;4992235;28;20118;-59
2023/01/29 05:25:28;;;;;;;3.00;2.70;;;;;;;16.78;40.47;102757.91;4999877;28;20085;-60
2023/01/29 05:28:06;;;;;;;3.15;2.67;;;;;;;16.80;40.46;102771.22;4987428;28;20031;-60
2023/01/29 05:30:36;;;;;;;3.42;2.60;;;;;;;16.80;40.55;102772.06;4994215;28;20118;-59
2023/01/29 05:33:02;;;;;;;3.88;2.83;;;;;;;16.81;40.45;102772.94;4993438;28;20046;-59
2023/01/29 05:35:27;;;;;;;2.85;2.63;;;;;;;16.80;40.28;102766.69;5005964;28;20042;-58
2023/01/29 05:37:55;;;;;;;3.20;2.90;;;;;;;16.72;40.33;102761.88;4995705;28;20030;-59
2023/01/29 05:40:20;;;;;;;3.38;2.70;;;;;;;16.81;40.31;102779.16;5004262;28;20049;-59
2023/01/29 05:42:45;;;;;;;3.22;2.80;;;;;;;16.82;40.02;102780.91;5024992;28;20069;-59
2023/01/29 05:45:11;;;;;;;3.45;2.63;;;;;;;16.81;40.22;102767.56;5024255;28;20034;-59
2023/01/29 05:47:36;;;;;;;2.92;2.65;;;;;;;16.80;40.27;102764.00;5006540;28;20022;-59
2023/01/29 05:50:01;;;;;;;3.90;3.15;;;;;;;16.82;40.26;102759.41;5008830;28;21139;-59
2023/01/29 05:52:27;;;;;;;3.28;2.50;;;;;;;16.82;40.31;102751.34;5025861;28;20086;-59
2023/01/29 05:54:52;;;;;;;3.28;2.88;;;;;;;16.82;40.29;102743.28;5025666;28;20064;-59
2023/01/29 05:57:17;;;;;;;3.67;2.70;;;;;;;16.83;40.24;102741.47;5011984;28;20077;-59
2023/01/29 05:59:42;;;;;;;4.07;3.67;;;;;;;16.82;40.35;102745.09;5016922;28;20073;-59
2023/01/29 06:02:08;;;;;;;3.55;2.78;;;;;;;16.81;40.33;102746.91;5020257;28;20025;-59
2023/01/29 06:04:33;;;;;;;3.58;3.03;;;;;;;16.82;40.29;102745.97;5011876;28;20053;-59
2023/01/29 06:07:00;;;;;;;3.00;2.63;;;;;;;16.83;40.34;102733.41;5012184;28;20030;-53
2023/01/29 06:09:25;;;;;;;3.20;2.90;;;;;;;16.82;40.34;102727.16;5023859;28;20494;-59
2023/01/29 06:11:50;;;;;;;3.88;2.65;;;;;;;16.82;40.41;102720.91;5014837;28;20085;-59
2023/01/29 06:14:15;;;;;;;3.45;2.72;;;;;;;16.82;40.35;102729.84;5009174;28;20070;-59
2023/01/29 06:16:41;;;;;;;3.25;2.85;;;;;;;16.82;40.40;102724.47;5019619;28;20085;-59
2023/01/29 06:19:06;;;;;;;3.10;2.80;;;;;;;16.83;40.22;102725.34;5016370;28;20030;-59
2023/01/29 06:21:31;;;;;;;3.75;3.40;;;;;;;16.83;40.22;102717.28;5015257;28;20038;-59
2023/01/29 06:23:56;;;;;;;2.95;2.65;;;;;;;16.82;40.20;102721.78;5013978;28;20457;-59
2023/01/29 06:26:21;;;;;;;3.28;2.85;;;;;;;16.80;40.21;102722.88;5024863;28;20041;-59
2023/01/29 06:28:48;;;;;;;3.13;2.83;;;;;;;16.82;40.29;102726.28;5011841;28;20030;-59
2023/01/29 06:31:13;;;;;;;3.13;2.78;;;;;;;16.82;40.38;102712.84;5025560;28;20030;-60
2023/01/29 06:33:38;;;;;;;3.05;2.75;;;;;;;16.80;40.13;102707.59;5024554;28;20601;-59
2023/01/29 06:36:04;;;;;;;3.22;2.92;;;;;;;16.81;40.21;102709.31;5025189;28;20029;-59
2023/01/29 06:38:30;;;;;;;3.45;3.13;;;;;;;16.82;40.08;102707.47;5022940;28;20033;-59
2023/01/29 06:40:56;;;;;;;3.25;2.92;;;;;;;16.78;40.26;102717.63;5004733;28;20050;-56
2023/01/29 06:43:22;;;;;;;4.30;3.42;;;;;;;16.77;40.22;102702.44;5019423;28;20101;-58
2023/01/29 06:45:55;;;;;;;4.13;3.55;;;;;;;16.83;40.18;102709.22;5015771;28;20026;-58
2023/01/29 06:48:21;;;;;;;4.43;3.25;;;;;;;16.81;40.00;102701.25;5011927;28;20030;-59
2023/01/29 06:50:48;;;;;;;3.67;3.30;;;;;;;16.83;40.06;102704.69;5023201;28;20064;-58
2023/01/29 06:53:14;;;;;;;4.22;3.10;;;;;;;16.80;40.09;102699.53;5013668;28;20455;-59
2023/01/29 06:55:39;;;;;;;3.25;2.85;;;;;;;16.81;40.15;102700.41;5019110;28;20506;-59
2023/01/29 06:58:06;;;;;;;3.00;2.70;;;;;;;16.79;40.10;102697.84;5014795;28;20375;-59
2023/01/29 07:00:31;;;;;;;3.80;3.13;;;;;;;16.81;40.08;102700.41;5010781;28;20022;-59
2023/01/29 07:02:57;;;;;;;3.40;3.10;;;;;;;16.80;40.09;102707.59;5024753;28;20026;-59
2023/01/29 07:05:22;;;;;;;3.20;2.90;;;;;;;16.80;40.03;102706.75;5010850;28;20037;-58
2023/01/29 07:07:47;;;;;;;4.30;3.25;;;;;;;16.81;40.14;102705.75;5023989;28;20025;-58
2023/01/29 07:10:12;;;;;;;3.45;3.15;;;;;;;16.79;40.38;102695.16;5023367;28;20048;-58
2023/01/29 07:12:38;;;;;;;6.70;3.55;;;;;;;16.82;40.32;102697.63;5020348;28;20030;-57
2023/01/29 07:15:03;;;;;;;4.65;3.25;;;;;;;16.84;40.29;102705.56;5020683;28;20486;-59
2023/01/29 07:17:29;;;;;;;4.93;3.70;;;;;;;16.84;40.37;102713.63;5023386;28;20033;-57
2023/01/29 07:19:54;;;;;;;3.78;3.15;;;;;;;16.84;40.21;102727.03;5021463;28;20467;-59
2023/01/29 07:22:19;;;;;;;3.63;2.85;;;;;;;16.82;40.35;102723.59;5022335;28;20038;-60
2023/01/29 07:24:45;;;;;;;3.35;2.70;;;;;;;16.85;40.39;102723.38;5017173;28;20030;-59
2023/01/29 07:27:10;;;;;;;5.68;3.80;;;;;;;16.84;40.25;102711.78;5022791;28;20046;-59
2023/01/29 07:29:35;;;;;;;3.78;3.28;;;;;;;16.84;40.37;102717.16;5023794;28;20069;-59
2023/01/29 07:32:00;;;;;;;3.17;2.85;;;;;;;16.83;40.83;102715.44;5017339;28;20053;-58
2023/01/29 07:34:26;;;;;;;4.20;3.25;;;;;;;16.86;40.91;102711.66;5018556;28;20030;-59
2023/01/29 07:36:55;;;;;;;3.63;2.90;;;;;;;16.94;40.84;102718.19;5020887;28;20546;-57
2023/01/29 07:39:21;;;;;;;3.08;2.78;;;;;;;16.97;40.99;102704.53;5018867;28;20029;-56
2023/01/29 07:41:46;;;;;;;4.25;3.25;;;;;;;16.99;41.02;102693.66;5018370;28;20561;-58
2023/01/29 07:44:11;;;;;;;3.85;3.13;;;;;;;16.97;40.79;102688.41;5025081;28;20036;-59
2023/01/29 07:46:37;;;;;;;3.58;3.22;;;;;;;17.02;40.93;102695.28;5025791;28;20463;-59
2023/01/29 07:49:02;;;;;;;5.03;3.03;;;;;;;17.04;40.89;102693.38;5026567;28;20030;-59
2023/01/29 07:51:27;;;;;;;4.18;2.75;;;;;;;17.01;41.00;102680.16;5027044;28;20030;-58
2023/01/29 07:53:53;;;;;;;4.07;2.80;;;;;;;17.06;41.00;102694.09;5022562;28;20018;-58
2023/01/29 07:56:18;;;;;;;3.17;2.88;;;;;;;17.07;40.95;102693.13;5016681;28;20605;-59
2023/01/29 07:58:43;;;;;;;4.22;3.00;;;;;;;17.09;41.06;102688.50;5024402;28;20084;-58
2023/01/29 08:01:08;;;;;;;4.70;3.05;;;;;;;17.09;41.10;102675.91;5023956;28;20026;-58
2023/01/29 08:03:34;;;;;;;3.60;2.85;;;;;;;17.10;41.00;102671.41;5025615;28;20463;-58
2023/01/29 08:06:00;;;;;;;3.58;2.97;;;;;;;17.11;40.95;102671.28;5015461;28;20112;-57
2023/01/29 08:08:25;;;;;;;4.68;3.58;;;;;;;17.11;41.11;102670.41;5015138;28;20491;-58
2023/01/29 08:10:50;;;;;;;3.42;2.78;;;;;;;17.10;41.28;102671.41;5022821;28;20085;-58
2023/01/29 08:13:15;;;;;;;4.38;2.72;;;;;;;17.10;40.98;102657.97;5026142;28;20049;-58
2023/01/29 08:15:44;;;;;;;3.25;2.83;;;;;;;17.12;40.92;102666.75;5024587;28;20064;-57
2023/01/29 08:18:09;;;;;;;3.85;3.13;;;;;;;17.12;40.96;102659.56;5023365;28;20037;-60
2023/01/29 08:20:35;;;;;;;3.53;2.95;;;;;;;17.14;41.16;102662.13;5022062;28;20037;-60
2023/01/29 08:23:05;;;;;;;3.72;3.33;;;;;;;17.13;40.89;102649.69;5007707;28;20026;-57
2023/01/29 08:25:30;;;;;;;3.60;3.17;;;;;;;17.18;40.75;102650.19;5015923;28;20087;-59
2023/01/29 08:27:57;;;;;;;4.15;2.88;;;;;;;17.17;40.79;102643.94;5026541;28;20021;-59
2023/01/29 08:30:22;;;;;;;3.30;2.85;;;;;;;17.18;40.74;102632.22;5024100;28;20022;-58
2023/01/29 08:32:47;;;;;;;4.38;3.40;;;;;;;17.14;40.88;102630.72;5024351;28;20029;-59
2023/01/29 08:35:13;;;;;;;4.35;3.30;;;;;;;17.20;40.81;102638.34;5022535;28;20027;-59
2023/01/29 08:37:38;;;;;;;3.80;3.40;;;;;;;17.21;40.84;102645.44;5022744;28;20030;-57
2023/01/29 08:40:04;;;;;;;3.60;2.92;;;;;;;17.22;41.04;102647.16;5021209;28;20018;-58
2023/01/29 08:42:29;;;;;;;3.53;3.22;;;;;;;17.22;40.99;102655.22;5024619;28;20037;-56
2023/01/29 08:44:54;;;;;;;4.45;3.28;;;;;;;17.20;40.94;102651.78;5014644;28;20018;-60
2023/01/29 08:47:20;;;;;;;5.25;3.30;;;;;;;17.20;40.91;102654.47;5026423;28;20030;-60
2023/01/29 08:49:46;;;;;;;3.92;3.42;;;;;;;17.21;40.68;102650.81;5026653;28;20085;-60
2023/01/29 08:52:11;;;;;;;3.47;3.13;;;;;;;17.21;40.19;102650.81;5026194;28;20026;-60
2023/01/29 08:54:36;;;;;;;5.88;3.30;;;;;;;17.15;40.56;102640.50;5020726;28;20391;-59
2023/01/29 08:57:02;;;;;;;5.97;2.90;;;;;;;17.21;40.47;102642.75;5024138;28;20084;-60
2023/01/29 08:59:27;;;;;;;4.22;3.67;;;;;;;17.19;40.47;102639.31;5026618;28;20033;-60
2023/01/29 09:01:52;;;;;;;4.55;3.45;;;;;;;17.19;40.47;102639.31;5014454;28;20030;-55
2023/01/29 09:04:18;;;;;;;3.92;3.30;;;;;;;17.19;40.65;102628.56;5020076;28;20018;-61
2023/01/29 09:06:43;;;;;;;3.33;3.03;;;;;;;17.21;40.41;102623.94;5024719;28;20060;-61
2023/01/29 09:09:09;;;;;;;3.90;3.42;;;;;;;17.22;40.46;102625.63;5021019;28;20085;-60
2023/01/29 09:11:34;;;;;;;3.40;3.10;;;;;;;17.20;40.51;102618.66;5012928;28;20026;-61
2023/01/29 09:14:00;;;;;;;3.00;2.70;;;;;;;17.24;40.12;102623.69;5017611;28;20086;-60
2023/01/29 09:16:25;;;;;;;3.92;2.80;;;;;;;17.23;40.39;102624.66;5008490;28;20735;-60
2023/01/29 09:18:52;;;;;;;3.85;3.35;;;;;;;17.24;40.42;102626.38;5025924;28;20061;-60
2023/01/29 09:21:17;;;;;;;3.88;3.30;;;;;;;17.27;40.57;102637.88;5024802;28;20474;-60
2023/01/29 09:23:42;;;;;;;3.50;3.20;;;;;;;17.26;40.21;102630.78;5022298;28;20093;-58
2023/01/29 09:26:07;;;;;;;3.78;3.15;;;;;;;17.24;40.38;102639.81;5025904;28;20095;-60
2023/01/29 09:28:33;;;;;;;4.88;3.22;;;;;;;17.27;40.37;102649.50;5025903;28;20028;-59
2023/01/29 09:31:02;;;;;;;4.10;3.50;;;;;;;17.28;40.13;102643.13;5008289;28;20029;-59
2023/01/29 09:33:27;;;;;;;4.28;2.90;;;;;;;17.29;40.11;102642.19;5025886;28;20363;-59
2023/01/29 09:35:53;;;;;;;4.47;3.40;;;;;;;17.29;40.21;102646.66;5022522;28;20489;-61
2023/01/29 09:38:18;;;;;;;3.33;3.03;;;;;;;17.28;39.89;102639.59;5010365;28;20113;-57
2023/01/29 09:41:29;;;;;;;4.05;3.63;;;;;;;17.29;40.34;102642.19;5023339;28;20022;-59
2023/01/29 09:43:58;;;;;;;3.28;2.97;;;;;;;17.29;40.21;102641.28;4933456;29;20048;-58
2023/01/29 09:46:38;;;;;;;3.20;2.90;;;;;;;17.29;40.00;102638.59;4924810;29;20031;-56
2023/01/29 09:49:15;;;;;;;3.50;2.83;;;;;;;17.22;40.20;102616.72;4944660;29;20039;-60
2023/01/29 09:51:43;;;;;;;3.70;3.35;;;;;;;17.28;40.15;102627.00;4926982;29;20035;-57
2023/01/29 09:54:18;;;;;;;3.55;2.97;;;;;;;17.30;40.17;102641.19;4935522;29;20036;-57
2023/01/29 09:56:44;;;;;;;3.30;2.90;;;;;;;17.28;40.09;102629.69;4928008;29;20039;-57
2023/01/29 09:59:12;;;;;;;4.00;3.00;;;;;;;17.32;40.06;102627.63;4933409;29;20114;-58
2023/01/29 10:01:48;;;;;;;4.20;3.25;;;;;;;17.32;40.20;102625.78;4944560;29;20039;-59
2023/01/29 10:04:31;;;;;;;4.25;3.08;;;;;;;17.32;40.20;102624.94;4942604;29;20019;-58
2023/01/29 10:07:16;;;;;;;3.60;2.63;;;;;;;17.32;40.36;102624.94;4937372;29;20036;-59
2023/01/29 10:10:07;;;;;;;6.22;3.17;;;;;;;17.31;40.59;102621.41;4939063;29;20132;-58
2023/01/29 10:13:06;;;;;;;4.50;3.05;;;;;;;17.33;40.62;102621.28;4938960;29;20181;-59
2023/01/29 10:15:45;;;;;;;3.03;2.72;;;;;;;17.28;40.41;102602.81;4936185;29;20024;-59
2023/01/29 10:18:30;;;;;;;4.88;2.78;;;;;;;17.34;40.53;102606.88;4944622;29;20115;-60
2023/01/29 10:20:58;;;;;;;3.13;2.83;;;;;;;17.35;40.63;102601.38;4979998;28;20026;-59
2023/01/29 10:23:28;;;;;;;3.65;3.20;;;;;;;17.35;40.58;102606.75;5025124;28;20041;-60
2023/01/29 10:25:54;;;;;;;3.50;2.60;;;;;;;17.32;40.49;102592.69;5024953;28;21054;-60
2023/01/29 10:28:28;;;;;;;3.47;2.75;;;;;;;17.37;40.62;102596.72;5004269;28;20026;-60
2023/01/29 10:30:57;;;;;;;3.33;2.75;;;;;;;17.38;40.55;102593.09;5024624;28;20383;-61
2023/01/29 10:33:31;;;;;;;3.60;2.47;;;;;;;17.38;40.59;102593.09;5007030;28;20018;-60
2023/01/29 10:36:01;;;;;;;3.13;2.58;;;;;;;17.39;40.78;102578.66;5024296;28;20018;-60
2023/01/29 10:38:35;;;;;;;3.92;3.25;;;;;;;17.39;40.72;102584.03;5007432;28;20483;-60
2023/01/29 10:41:18;;;;;;;4.78;2.90;;;;;;;17.42;40.69;102580.25;5021356;28;20021;-60
2023/01/29 10:44:24;;;;;;;3.55;2.33;;;;;;;17.43;40.71;102580.13;5022567;28;20459;-60
2023/01/29 10:46:58;;;;;;;3.40;3.05;;;;;;;17.45;40.41;102577.31;5007255;28;20512;-59
2023/01/29 10:49:30;;;;;;;2.85;2.55;;;;;;;17.46;40.58;102573.69;5025195;28;20030;-60
2023/01/29 10:52:20;;;;;;;3.38;2.83;;;;;;;17.45;40.47;102574.63;5007198;28;20034;-61
2023/01/29 10:55:13;;;;;;;3.03;2.72;;;;;;;17.45;40.21;102572.78;5024679;28;20026;-60
2023/01/29 10:57:47;;;;;;;2.88;2.63;;;;;;;17.45;40.13;102558.50;5024820;28;20033;-60
2023/01/29 11:00:21;;;;;;;3.47;2.95;;;;;;;17.44;40.06;102559.47;5024637;28;20097;-58
2023/01/29 11:02:49;;;;;;;3.58;2.78;;;;;;;17.44;40.07;102548.72;5007190;28;20033;-60
2023/01/29 11:05:22;;;;;;;2.53;2.33;;;;;;;17.43;40.01;102549.72;5024333;28;20028;-60
2023/01/29 11:07:48;;;;;;;3.28;2.97;;;;;;;17.34;40.18;102532.44;5007126;28;20057;-59
2023/01/29 11:10:16;;;;;;;3.75;2.42;;;;;;;17.44;40.23;102537.97;5006228;28;20053;-57
2023/01/29 11:12:42;;;;;;;2.78;2.53;;;;;;;17.45;40.40;102542.34;5006564;28;20034;-62
2023/01/29 11:15:10;;;;;;;3.60;2.83;;;;;;;17.46;40.55;102527.97;5006366;28;20021;-61
2023/01/29 11:17:36;;;;;;;3.23;2.83;;;;;;;17.46;40.60;102527.97;5024056;28;20025;-61
2023/01/29 11:20:01;;;;;;;3.42;2.80;;;;;;;17.46;40.94;102528.81;5024257;28;20313;-60
2023/01/29 11:22:28;;;;;;;4.38;2.80;;;;;;;17.46;40.86;102518.06;5006758;28;20037;-61
2023/01/29 11:25:16;;;;;;;3.15;2.65;;;;;;;17.48;41.04;102516.09;5023861;28;20068;-60
2023/01/29 11:27:44;;;;;;;3.65;2.85;;;;;;;17.48;41.09;102518.78;5014030;28;20109;-60
2023/01/29 11:30:31;;;;;;;3.38;3.08;;;;;;;17.50;40.96;102513.31;5006766;28;20022;-61
2023/01/29 11:33:07;;;;;;;3.10;2.50;;;;;;;17.51;41.25;102516.84;5023295;28;20029;-62
2023/01/29 11:35:32;;;;;;;3.40;2.70;;;;;;;17.52;40.96;102515.84;5021879;28;20041;-61
2023/01/29 11:38:27;;;;;;;2.70;2.50;;;;;;;17.52;40.96;102516.72;5023864;28;20026;-59
2023/01/29 11:41:05;;;;;;;4.28;3.03;;;;;;;17.43;40.94;102498.63;5001517;28;20038;-60
2023/01/29 11:43:30;;;;;;;3.10;2.55;;;;;;;17.51;40.98;102504.25;5024682;28;20022;-61
2023/01/29 11:46:10;;;;;;;5.25;3.40;;;;;;;17.48;40.87;102493.72;5023689;28;20696;-60
2023/01/29 11:48:42;;;;;;;4.03;3.28;;;;;;;17.52;41.00;102499.72;5023201;28;20053;-58
2023/01/29 11:51:11;;;;;;;3.85;3.20;;;;;;;17.54;40.89;102497.75;5001443;28;20034;-58
2023/01/29 11:53:39;;;;;;;3.92;3.45;;;;;;;17.54;40.67;102495.06;5023908;28;20061;-59
2023/01/29 11:56:28;;;;;;;3.28;2.97;;;;;;;17.42;40.60;102465.50;5006596;28;20030;-60
2023/01/29 11:58:54;;;;;;;3.83;3.40;;;;;;;17.49;40.60;102473.91;5022351;28;20030;-57
2023/01/29 12:01:30;;;;;;;4.75;3.63;;;;;;;17.55;40.41;102473.44;5011604;28;20505;-59
2023/01/29 12:03:55;;;;;;;4.72;3.83;;;;;;;17.55;40.46;102472.59;5006430;28;20101;-59
2023/01/29 12:06:33;;;;;;;4.50;3.50;;;;;;;17.56;40.40;102468.94;5023529;28;20041;-61
2023/01/29 12:09:00;;;;;;;4.57;4.05;;;;;;;17.57;40.55;102465.25;5018331;28;20057;-60